sensor_id;sensor_type;location;lat;lon;timestamp;P1;durP1;ratioP1;P2;durP2;ratioP2
73251;SDS011;61473;50.834;4.552;2022-07-22T00:00:36;13.20;;;3.22;;
73251;SDS011;61473;50.834;4.552;2022-07-22T00:03:01;6.18;;;2.97;;
73251;SDS011;61473;50.834;4.552;2022-07-22T00:05:27;8.20;;;2.85;;
73251;SDS011;61473;50.834;4.552;2022-07-22T00:07:53;10.32;;;3.03;;
73251;SDS011;61473;50.834;4.552;2022-07-22T00:10:18;10.07;;;3.00;;
73251;SDS011;61473;50.834;4.552;2022-07-22T00:12:44;12.88;;;3.60;;
73251;SDS011;61473;50.834;4.552;2022-07-22T00:15:09;11.35;;;3.78;;
73251;SDS011;61473;50.834;4.552;2022-07-22T00:17:35;7.88;;;2.85;;
73251;SDS011;61473;50.834;4.552;2022-07-22T00:20:01;9.07;;;2.40;;
73251;SDS011;61473;50.834;4.552;2022-07-22T00:22:28;9.70;;;2.50;;
73251;SDS011;61473;50.834;4.552;2022-07-22T00:24:53;11.73;;;2.72;;
73251;SDS011;61473;50.834;4.552;2022-07-22T00:27:19;12.45;;;4.00;;
73251;SDS011;61473;50.834;4.552;2022-07-22T00:29:44;11.80;;;3.15;;
73251;SDS011;61473;50.834;4.552;2022-07-22T00:32:10;11.00;;;2.70;;
73251;SDS011;61473;50.834;4.552;2022-07-22T00:34:36;11.50;;;3.20;;
73251;SDS011;61473;50.834;4.552;2022-07-22T00:37:01;7.43;;;2.65;;
73251;SDS011;61473;50.834;4.552;2022-07-22T00:39:27;12.70;;;2.85;;
73251;SDS011;61473;50.834;4.552;2022-07-22T00:41:53;5.40;;;2.38;;
73251;SDS011;61473;50.834;4.552;2022-07-22T00:44:18;5.88;;;2.13;;
73251;SDS011;61473;50.834;4.552;2022-07-22T00:46:44;10.18;;;2.83;;
73251;SDS011;61473;50.834;4.552;2022-07-22T00:49:10;7.65;;;3.10;;
73251;SDS011;61473;50.834;4.552;2022-07-22T00:51:36;8.70;;;2.40;;
73251;SDS011;61473;50.834;4.552;2022-07-22T00:54:04;7.40;;;2.35;;
73251;SDS011;61473;50.834;4.552;2022-07-22T00:56:30;11.27;;;2.88;;
73251;SDS011;61473;50.834;4.552;2022-07-22T00:58:57;10.05;;;2.35;;
73251;SDS011;61473;50.834;4.552;2022-07-22T01:01:24;11.27;;;2.17;;
73251;SDS011;61473;50.834;4.552;2022-07-22T01:03:51;5.95;;;1.90;;
73251;SDS011;61473;50.834;4.552;2022-07-22T01:06:17;9.05;;;2.22;;
73251;SDS011;61473;50.834;4.552;2022-07-22T01:08:42;6.07;;;2.10;;
73251;SDS011;61473;50.834;4.552;2022-07-22T01:11:13;6.43;;;2.05;;
73251;SDS011;61473;50.834;4.552;2022-07-22T01:13:40;11.15;;;2.45;;
73251;SDS011;61473;50.834;4.552;2022-07-22T01:16:07;7.35;;;1.92;;
73251;SDS011;61473;50.834;4.552;2022-07-22T01:18:34;6.93;;;2.60;;
73251;SDS011;61473;50.834;4.552;2022-07-22T01:21:00;4.55;;;1.52;;
73251;SDS011;61473;50.834;4.552;2022-07-22T01:23:26;5.20;;;2.05;;
73251;SDS011;61473;50.834;4.552;2022-07-22T01:25:52;7.53;;;2.13;;
73251;SDS011;61473;50.834;4.552;2022-07-22T01:28:17;9.82;;;2.17;;
73251;SDS011;61473;50.834;4.552;2022-07-22T01:30:44;3.78;;;2.08;;
73251;SDS011;61473;50.834;4.552;2022-07-22T01:33:10;10.60;;;2.67;;
73251;SDS011;61473;50.834;4.552;2022-07-22T01:35:35;9.65;;;2.40;;
73251;SDS011;61473;50.834;4.552;2022-07-22T01:38:01;8.75;;;2.58;;
73251;SDS011;61473;50.834;4.552;2022-07-22T01:40:27;6.90;;;2.30;;
73251;SDS011;61473;50.834;4.552;2022-07-22T01:42:52;8.95;;;2.75;;
73251;SDS011;61473;50.834;4.552;2022-07-22T01:45:18;4.97;;;2.58;;
73251;SDS011;61473;50.834;4.552;2022-07-22T01:47:43;6.47;;;2.22;;
73251;SDS011;61473;50.834;4.552;2022-07-22T01:50:09;5.60;;;2.10;;
73251;SDS011;61473;50.834;4.552;2022-07-22T01:52:36;5.70;;;2.00;;
73251;SDS011;61473;50.834;4.552;2022-07-22T01:55:04;6.90;;;2.13;;
73251;SDS011;61473;50.834;4.552;2022-07-22T01:57:30;6.80;;;1.88;;
73251;SDS011;61473;50.834;4.552;2022-07-22T01:59:56;7.57;;;2.00;;
73251;SDS011;61473;50.834;4.552;2022-07-22T02:02:21;7.28;;;2.13;;
73251;SDS011;61473;50.834;4.552;2022-07-22T02:04:47;5.93;;;2.22;;
73251;SDS011;61473;50.834;4.552;2022-07-22T02:07:13;8.85;;;3.42;;
73251;SDS011;61473;50.834;4.552;2022-07-22T02:09:38;7.03;;;2.60;;
73251;SDS011;61473;50.834;4.552;2022-07-22T02:12:04;8.75;;;2.45;;
73251;SDS011;61473;50.834;4.552;2022-07-22T02:14:30;5.25;;;2.33;;
73251;SDS011;61473;50.834;4.552;2022-07-22T02:16:55;7.30;;;2.33;;
73251;SDS011;61473;50.834;4.552;2022-07-22T02:19:21;7.35;;;2.20;;
73251;SDS011;61473;50.834;4.552;2022-07-22T02:21:47;8.77;;;2.50;;
73251;SDS011;61473;50.834;4.552;2022-07-22T02:24:12;7.53;;;2.35;;
73251;SDS011;61473;50.834;4.552;2022-07-22T02:26:38;4.75;;;1.70;;
73251;SDS011;61473;50.834;4.552;2022-07-22T02:29:03;7.70;;;1.95;;
73251;SDS011;61473;50.834;4.552;2022-07-22T02:31:29;5.40;;;2.65;;
73251;SDS011;61473;50.834;4.552;2022-07-22T02:33:55;4.13;;;1.50;;
73251;SDS011;61473;50.834;4.552;2022-07-22T02:36:20;10.10;;;2.28;;
73251;SDS011;61473;50.834;4.552;2022-07-22T02:38:46;5.88;;;2.42;;
73251;SDS011;61473;50.834;4.552;2022-07-22T02:41:11;5.05;;;1.85;;
73251;SDS011;61473;50.834;4.552;2022-07-22T02:43:37;5.78;;;1.73;;
73251;SDS011;61473;50.834;4.552;2022-07-22T02:46:03;7.63;;;2.65;;
73251;SDS011;61473;50.834;4.552;2022-07-22T02:48:28;5.70;;;1.88;;
73251;SDS011;61473;50.834;4.552;2022-07-22T02:50:54;10.27;;;1.67;;
73251;SDS011;61473;50.834;4.552;2022-07-22T02:53:19;4.18;;;1.70;;
73251;SDS011;61473;50.834;4.552;2022-07-22T02:55:45;9.15;;;2.13;;
73251;SDS011;61473;50.834;4.552;2022-07-22T02:58:11;5.63;;;1.85;;
73251;SDS011;61473;50.834;4.552;2022-07-22T03:00:36;6.35;;;1.92;;
73251;SDS011;61473;50.834;4.552;2022-07-22T03:03:05;6.60;;;1.85;;
73251;SDS011;61473;50.834;4.552;2022-07-22T03:05:30;7.13;;;2.38;;
73251;SDS011;61473;50.834;4.552;2022-07-22T03:07:56;11.10;;;1.85;;
73251;SDS011;61473;50.834;4.552;2022-07-22T03:10:22;10.52;;;2.25;;
73251;SDS011;61473;50.834;4.552;2022-07-22T03:12:48;12.40;;;3.15;;
73251;SDS011;61473;50.834;4.552;2022-07-22T03:15:13;7.80;;;2.40;;
73251;SDS011;61473;50.834;4.552;2022-07-22T03:17:39;5.32;;;1.77;;
73251;SDS011;61473;50.834;4.552;2022-07-22T03:20:05;6.63;;;1.90;;
73251;SDS011;61473;50.834;4.552;2022-07-22T03:22:32;8.02;;;2.05;;
73251;SDS011;61473;50.834;4.552;2022-07-22T03:24:58;7.72;;;1.73;;
73251;SDS011;61473;50.834;4.552;2022-07-22T03:27:24;8.00;;;2.15;;
73251;SDS011;61473;50.834;4.552;2022-07-22T03:29:50;8.02;;;2.20;;
73251;SDS011;61473;50.834;4.552;2022-07-22T03:32:16;4.05;;;1.92;;
73251;SDS011;61473;50.834;4.552;2022-07-22T03:34:41;3.97;;;1.50;;
73251;SDS011;61473;50.834;4.552;2022-07-22T03:37:07;8.63;;;2.88;;
73251;SDS011;61473;50.834;4.552;2022-07-22T03:39:33;15.10;;;2.95;;
73251;SDS011;61473;50.834;4.552;2022-07-22T03:41:59;10.20;;;1.90;;
73251;SDS011;61473;50.834;4.552;2022-07-22T03:44:24;14.32;;;1.92;;
73251;SDS011;61473;50.834;4.552;2022-07-22T03:46:50;13.15;;;1.92;;
73251;SDS011;61473;50.834;4.552;2022-07-22T03:49:16;11.73;;;2.47;;
73251;SDS011;61473;50.834;4.552;2022-07-22T03:51:41;14.43;;;2.08;;
73251;SDS011;61473;50.834;4.552;2022-07-22T03:54:08;9.95;;;2.00;;
73251;SDS011;61473;50.834;4.552;2022-07-22T03:56:33;9.25;;;1.67;;
73251;SDS011;61473;50.834;4.552;2022-07-22T03:58:59;9.25;;;2.08;;
73251;SDS011;61473;50.834;4.552;2022-07-22T04:01:24;10.25;;;2.15;;
73251;SDS011;61473;50.834;4.552;2022-07-22T04:03:50;10.52;;;2.63;;
73251;SDS011;61473;50.834;4.552;2022-07-22T04:06:16;14.40;;;2.28;;
73251;SDS011;61473;50.834;4.552;2022-07-22T04:08:41;14.30;;;2.70;;
73251;SDS011;61473;50.834;4.552;2022-07-22T04:11:07;9.18;;;1.92;;
73251;SDS011;61473;50.834;4.552;2022-07-22T04:13:33;12.73;;;2.42;;
73251;SDS011;61473;50.834;4.552;2022-07-22T04:15:59;5.57;;;1.80;;
73251;SDS011;61473;50.834;4.552;2022-07-22T04:18:24;8.68;;;2.85;;
73251;SDS011;61473;50.834;4.552;2022-07-22T04:20:50;11.88;;;1.80;;
73251;SDS011;61473;50.834;4.552;2022-07-22T04:23:16;8.40;;;2.65;;
73251;SDS011;61473;50.834;4.552;2022-07-22T04:25:42;12.30;;;2.78;;
73251;SDS011;61473;50.834;4.552;2022-07-22T04:28:07;9.88;;;2.28;;
73251;SDS011;61473;50.834;4.552;2022-07-22T04:30:33;6.20;;;1.60;;
73251;SDS011;61473;50.834;4.552;2022-07-22T04:32:59;8.90;;;1.88;;
73251;SDS011;61473;50.834;4.552;2022-07-22T04:35:24;11.32;;;2.33;;
73251;SDS011;61473;50.834;4.552;2022-07-22T04:37:50;16.92;;;2.95;;
73251;SDS011;61473;50.834;4.552;2022-07-22T04:40:16;11.40;;;2.75;;
73251;SDS011;61473;50.834;4.552;2022-07-22T04:42:41;13.60;;;3.05;;
73251;SDS011;61473;50.834;4.552;2022-07-22T04:45:07;11.70;;;1.92;;
73251;SDS011;61473;50.834;4.552;2022-07-22T04:47:33;11.68;;;2.10;;
73251;SDS011;61473;50.834;4.552;2022-07-22T04:49:59;14.35;;;3.22;;
73251;SDS011;61473;50.834;4.552;2022-07-22T04:52:24;9.05;;;2.60;;
73251;SDS011;61473;50.834;4.552;2022-07-22T04:54:50;13.32;;;2.35;;
73251;SDS011;61473;50.834;4.552;2022-07-22T04:57:15;15.45;;;2.33;;
73251;SDS011;61473;50.834;4.552;2022-07-22T04:59:41;9.23;;;2.30;;
73251;SDS011;61473;50.834;4.552;2022-07-22T05:02:07;9.45;;;2.40;;
73251;SDS011;61473;50.834;4.552;2022-07-22T05:04:32;11.60;;;2.50;;
73251;SDS011;61473;50.834;4.552;2022-07-22T05:06:58;11.35;;;2.03;;
73251;SDS011;61473;50.834;4.552;2022-07-22T05:09:24;9.90;;;2.30;;
73251;SDS011;61473;50.834;4.552;2022-07-22T05:11:49;12.57;;;2.42;;
73251;SDS011;61473;50.834;4.552;2022-07-22T05:14:15;8.43;;;2.63;;
73251;SDS011;61473;50.834;4.552;2022-07-22T05:16:40;8.90;;;2.63;;
73251;SDS011;61473;50.834;4.552;2022-07-22T05:19:06;9.52;;;2.20;;
73251;SDS011;61473;50.834;4.552;2022-07-22T05:21:32;10.18;;;2.90;;
73251;SDS011;61473;50.834;4.552;2022-07-22T05:23:58;31.00;;;3.47;;
73251;SDS011;61473;50.834;4.552;2022-07-22T05:26:24;37.47;;;5.25;;
73251;SDS011;61473;50.834;4.552;2022-07-22T05:28:49;36.30;;;4.38;;
73251;SDS011;61473;50.834;4.552;2022-07-22T05:31:15;20.80;;;3.60;;
73251;SDS011;61473;50.834;4.552;2022-07-22T05:33:41;29.63;;;5.55;;
73251;SDS011;61473;50.834;4.552;2022-07-22T05:36:07;17.55;;;3.75;;
73251;SDS011;61473;50.834;4.552;2022-07-22T05:38:34;27.20;;;5.20;;
73251;SDS011;61473;50.834;4.552;2022-07-22T05:41:00;23.98;;;4.47;;
73251;SDS011;61473;50.834;4.552;2022-07-22T05:43:27;22.35;;;4.15;;
73251;SDS011;61473;50.834;4.552;2022-07-22T05:45:53;19.05;;;4.00;;
73251;SDS011;61473;50.834;4.552;2022-07-22T05:48:19;26.50;;;5.30;;
73251;SDS011;61473;50.834;4.552;2022-07-22T05:50:44;24.35;;;6.80;;
73251;SDS011;61473;50.834;4.552;2022-07-22T05:53:10;19.38;;;4.80;;
73251;SDS011;61473;50.834;4.552;2022-07-22T05:55:35;14.48;;;4.95;;
73251;SDS011;61473;50.834;4.552;2022-07-22T05:58:01;16.30;;;5.82;;
73251;SDS011;61473;50.834;4.552;2022-07-22T06:00:27;14.30;;;5.47;;
73251;SDS011;61473;50.834;4.552;2022-07-22T06:02:52;19.75;;;5.50;;
73251;SDS011;61473;50.834;4.552;2022-07-22T06:05:18;15.18;;;5.97;;
73251;SDS011;61473;50.834;4.552;2022-07-22T06:07:44;14.68;;;6.53;;
73251;SDS011;61473;50.834;4.552;2022-07-22T06:10:10;17.88;;;7.57;;
73251;SDS011;61473;50.834;4.552;2022-07-22T06:12:36;13.48;;;6.40;;
73251;SDS011;61473;50.834;4.552;2022-07-22T06:15:01;15.95;;;5.78;;
73251;SDS011;61473;50.834;4.552;2022-07-22T06:17:27;14.05;;;6.47;;
73251;SDS011;61473;50.834;4.552;2022-07-22T06:19:53;14.80;;;6.30;;
73251;SDS011;61473;50.834;4.552;2022-07-22T06:22:19;18.05;;;5.40;;
73251;SDS011;61473;50.834;4.552;2022-07-22T06:24:45;11.75;;;6.05;;
73251;SDS011;61473;50.834;4.552;2022-07-22T06:27:11;12.68;;;5.80;;
73251;SDS011;61473;50.834;4.552;2022-07-22T06:29:36;10.63;;;4.93;;
73251;SDS011;61473;50.834;4.552;2022-07-22T06:32:02;13.50;;;5.97;;
73251;SDS011;61473;50.834;4.552;2022-07-22T06:34:28;13.57;;;4.78;;
73251;SDS011;61473;50.834;4.552;2022-07-22T06:36:54;11.65;;;4.78;;
73251;SDS011;61473;50.834;4.552;2022-07-22T06:39:20;11.38;;;4.38;;
73251;SDS011;61473;50.834;4.552;2022-07-22T06:41:46;14.25;;;6.47;;
73251;SDS011;61473;50.834;4.552;2022-07-22T06:44:12;13.10;;;4.65;;
73251;SDS011;61473;50.834;4.552;2022-07-22T06:46:38;14.10;;;4.93;;
73251;SDS011;61473;50.834;4.552;2022-07-22T06:49:03;12.88;;;4.88;;
73251;SDS011;61473;50.834;4.552;2022-07-22T06:51:29;12.18;;;4.75;;
73251;SDS011;61473;50.834;4.552;2022-07-22T06:53:55;13.68;;;4.28;;
73251;SDS011;61473;50.834;4.552;2022-07-22T06:56:21;12.82;;;4.03;;
73251;SDS011;61473;50.834;4.552;2022-07-22T06:58:46;13.88;;;4.43;;
73251;SDS011;61473;50.834;4.552;2022-07-22T07:01:12;10.18;;;3.70;;
73251;SDS011;61473;50.834;4.552;2022-07-22T07:03:38;12.07;;;4.20;;
73251;SDS011;61473;50.834;4.552;2022-07-22T07:06:06;9.25;;;4.18;;
73251;SDS011;61473;50.834;4.552;2022-07-22T07:08:32;6.50;;;3.55;;
73251;SDS011;61473;50.834;4.552;2022-07-22T07:10:58;12.77;;;3.60;;
73251;SDS011;61473;50.834;4.552;2022-07-22T07:13:24;9.73;;;4.68;;
73251;SDS011;61473;50.834;4.552;2022-07-22T07:15:49;8.32;;;3.05;;
73251;SDS011;61473;50.834;4.552;2022-07-22T07:18:15;8.10;;;3.00;;
73251;SDS011;61473;50.834;4.552;2022-07-22T07:20:41;6.97;;;3.10;;
73251;SDS011;61473;50.834;4.552;2022-07-22T07:23:06;7.13;;;3.25;;
73251;SDS011;61473;50.834;4.552;2022-07-22T07:25:32;8.35;;;4.15;;
73251;SDS011;61473;50.834;4.552;2022-07-22T07:27:58;5.43;;;3.63;;
73251;SDS011;61473;50.834;4.552;2022-07-22T07:30:24;11.40;;;4.10;;
73251;SDS011;61473;50.834;4.552;2022-07-22T07:32:50;8.98;;;3.80;;
73251;SDS011;61473;50.834;4.552;2022-07-22T07:35:16;8.13;;;3.88;;
73251;SDS011;61473;50.834;4.552;2022-07-22T07:37:41;11.82;;;4.20;;
73251;SDS011;61473;50.834;4.552;2022-07-22T07:40:07;11.23;;;4.38;;
73251;SDS011;61473;50.834;4.552;2022-07-22T07:42:33;11.50;;;4.07;;
73251;SDS011;61473;50.834;4.552;2022-07-22T07:44:59;9.23;;;4.32;;
73251;SDS011;61473;50.834;4.552;2022-07-22T07:47:24;8.57;;;4.57;;
73251;SDS011;61473;50.834;4.552;2022-07-22T07:49:50;6.05;;;3.33;;
73251;SDS011;61473;50.834;4.552;2022-07-22T07:52:16;7.72;;;3.58;;
73251;SDS011;61473;50.834;4.552;2022-07-22T07:54:42;5.20;;;3.83;;
73251;SDS011;61473;50.834;4.552;2022-07-22T07:57:09;9.40;;;3.33;;
73251;SDS011;61473;50.834;4.552;2022-07-22T07:59:38;8.80;;;3.88;;
73251;SDS011;61473;50.834;4.552;2022-07-22T08:02:04;10.63;;;3.80;;
73251;SDS011;61473;50.834;4.552;2022-07-22T08:04:30;5.05;;;3.08;;
73251;SDS011;61473;50.834;4.552;2022-07-22T08:06:56;9.15;;;4.07;;
73251;SDS011;61473;50.834;4.552;2022-07-22T08:09:22;8.13;;;3.50;;
73251;SDS011;61473;50.834;4.552;2022-07-22T08:11:48;12.07;;;4.22;;
73251;SDS011;61473;50.834;4.552;2022-07-22T08:14:14;6.93;;;3.17;;
73251;SDS011;61473;50.834;4.552;2022-07-22T08:16:39;7.93;;;3.30;;
73251;SDS011;61473;50.834;4.552;2022-07-22T08:19:05;5.32;;;3.05;;
73251;SDS011;61473;50.834;4.552;2022-07-22T08:21:31;6.53;;;3.03;;
73251;SDS011;61473;50.834;4.552;2022-07-22T08:23:57;5.25;;;3.55;;
73251;SDS011;61473;50.834;4.552;2022-07-22T08:26:22;6.07;;;3.22;;
73251;SDS011;61473;50.834;4.552;2022-07-22T08:28:48;4.53;;;2.58;;
73251;SDS011;61473;50.834;4.552;2022-07-22T08:31:14;5.93;;;3.38;;
73251;SDS011;61473;50.834;4.552;2022-07-22T08:33:39;4.57;;;2.67;;
73251;SDS011;61473;50.834;4.552;2022-07-22T08:36:05;3.88;;;2.60;;
73251;SDS011;61473;50.834;4.552;2022-07-22T08:38:31;13.55;;;3.50;;
73251;SDS011;61473;50.834;4.552;2022-07-22T08:40:57;5.10;;;3.05;;
73251;SDS011;61473;50.834;4.552;2022-07-22T08:43:24;5.00;;;2.80;;
73251;SDS011;61473;50.834;4.552;2022-07-22T08:45:50;6.00;;;3.15;;
73251;SDS011;61473;50.834;4.552;2022-07-22T08:48:16;4.50;;;2.47;;
73251;SDS011;61473;50.834;4.552;2022-07-22T08:50:42;4.63;;;2.63;;
73251;SDS011;61473;50.834;4.552;2022-07-22T08:53:11;4.30;;;2.35;;
73251;SDS011;61473;50.834;4.552;2022-07-22T08:55:42;4.97;;;2.33;;
73251;SDS011;61473;50.834;4.552;2022-07-22T08:58:08;5.88;;;3.55;;
73251;SDS011;61473;50.834;4.552;2022-07-22T09:00:34;5.43;;;2.55;;
73251;SDS011;61473;50.834;4.552;2022-07-22T09:03:00;2.53;;;2.10;;
73251;SDS011;61473;50.834;4.552;2022-07-22T09:05:42;3.00;;;2.03;;
73251;SDS011;61473;50.834;4.552;2022-07-22T09:08:08;5.13;;;2.95;;
73251;SDS011;61473;50.834;4.552;2022-07-22T09:10:35;3.72;;;2.35;;
73251;SDS011;61473;50.834;4.552;2022-07-22T09:13:02;4.28;;;1.92;;
73251;SDS011;61473;50.834;4.552;2022-07-22T09:15:32;2.90;;;2.05;;
73251;SDS011;61473;50.834;4.552;2022-07-22T09:18:07;4.00;;;1.98;;
73251;SDS011;61473;50.834;4.552;2022-07-22T09:20:34;4.15;;;2.15;;
73251;SDS011;61473;50.834;4.552;2022-07-22T09:23:01;2.85;;;1.98;;
73251;SDS011;61473;50.834;4.552;2022-07-22T09:25:34;4.72;;;2.22;;
73251;SDS011;61473;50.834;4.552;2022-07-22T09:30:33;2.58;;;1.73;;
73251;SDS011;61473;50.834;4.552;2022-07-22T09:33:00;5.13;;;1.60;;
73251;SDS011;61473;50.834;4.552;2022-07-22T09:35:27;2.80;;;2.00;;
73251;SDS011;61473;50.834;4.552;2022-07-22T09:37:57;3.67;;;2.22;;
73251;SDS011;61473;50.834;4.552;2022-07-22T09:40:25;4.53;;;2.03;;
73251;SDS011;61473;50.834;4.552;2022-07-22T09:43:00;3.15;;;1.80;;
73251;SDS011;61473;50.834;4.552;2022-07-22T09:45:28;4.47;;;1.95;;
73251;SDS011;61473;50.834;4.552;2022-07-22T09:47:56;2.67;;;2.15;;
73251;SDS011;61473;50.834;4.552;2022-07-22T09:50:25;5.15;;;2.33;;
73251;SDS011;61473;50.834;4.552;2022-07-22T09:52:53;7.47;;;2.33;;
73251;SDS011;61473;50.834;4.552;2022-07-22T09:55:21;3.50;;;2.05;;
73251;SDS011;61473;50.834;4.552;2022-07-22T09:57:48;4.22;;;1.95;;
73251;SDS011;61473;50.834;4.552;2022-07-22T10:00:16;3.78;;;1.90;;
73251;SDS011;61473;50.834;4.552;2022-07-22T10:05:14;5.90;;;2.28;;
73251;SDS011;61473;50.834;4.552;2022-07-22T10:07:41;3.40;;;2.15;;
73251;SDS011;61473;50.834;4.552;2022-07-22T10:10:10;3.17;;;2.25;;
73251;SDS011;61473;50.834;4.552;2022-07-22T10:12:37;3.55;;;2.22;;
73251;SDS011;61473;50.834;4.552;2022-07-22T10:15:04;3.22;;;1.90;;
73251;SDS011;61473;50.834;4.552;2022-07-22T10:17:32;3.33;;;2.50;;
73251;SDS011;61473;50.834;4.552;2022-07-22T10:20:00;3.17;;;2.05;;
73251;SDS011;61473;50.834;4.552;2022-07-22T10:25:04;4.28;;;2.28;;
73251;SDS011;61473;50.834;4.552;2022-07-22T10:27:43;6.15;;;3.30;;
73251;SDS011;61473;50.834;4.552;2022-07-22T10:30:14;4.65;;;2.38;;
73251;SDS011;61473;50.834;4.552;2022-07-22T10:33:13;6.35;;;2.92;;
73251;SDS011;61473;50.834;4.552;2022-07-22T10:38:09;3.90;;;2.72;;
73251;SDS011;61473;50.834;4.552;2022-07-22T10:40:47;7.43;;;2.70;;
73251;SDS011;61473;50.834;4.552;2022-07-22T10:43:18;5.80;;;2.72;;
73251;SDS011;61473;50.834;4.552;2022-07-22T10:46:08;4.25;;;2.38;;
73251;SDS011;61473;50.834;4.552;2022-07-22T10:51:19;3.17;;;2.10;;
73251;SDS011;61473;50.834;4.552;2022-07-22T10:56:13;6.75;;;2.40;;
73251;SDS011;61473;50.834;4.552;2022-07-22T10:58:45;8.20;;;2.88;;
73251;SDS011;61473;50.834;4.552;2022-07-22T11:01:14;9.73;;;3.13;;
73251;SDS011;61473;50.834;4.552;2022-07-22T11:03:41;8.18;;;2.72;;
73251;SDS011;61473;50.834;4.552;2022-07-22T11:06:20;8.52;;;2.70;;
73251;SDS011;61473;50.834;4.552;2022-07-22T11:09:05;4.65;;;2.80;;
73251;SDS011;61473;50.834;4.552;2022-07-22T11:11:46;4.20;;;2.35;;
73251;SDS011;61473;50.834;4.552;2022-07-22T11:14:16;6.97;;;2.90;;
73251;SDS011;61473;50.834;4.552;2022-07-22T11:16:43;6.57;;;2.78;;
73251;SDS011;61473;50.834;4.552;2022-07-22T11:19:10;5.13;;;3.03;;
73251;SDS011;61473;50.834;4.552;2022-07-22T11:21:35;4.88;;;2.53;;
73251;SDS011;61473;50.834;4.552;2022-07-22T11:24:03;7.55;;;2.47;;
73251;SDS011;61473;50.834;4.552;2022-07-22T11:26:39;4.78;;;2.63;;
73251;SDS011;61473;50.834;4.552;2022-07-22T11:29:06;3.88;;;2.75;;
73251;SDS011;61473;50.834;4.552;2022-07-22T11:31:33;5.53;;;2.92;;
73251;SDS011;61473;50.834;4.552;2022-07-22T11:34:13;6.00;;;3.03;;
73251;SDS011;61473;50.834;4.552;2022-07-22T11:36:41;5.95;;;2.67;;
73251;SDS011;61473;50.834;4.552;2022-07-22T11:39:09;4.32;;;2.13;;
73251;SDS011;61473;50.834;4.552;2022-07-22T11:41:36;4.68;;;3.10;;
73251;SDS011;61473;50.834;4.552;2022-07-22T11:44:03;3.03;;;2.08;;
73251;SDS011;61473;50.834;4.552;2022-07-22T11:46:34;3.58;;;2.30;;
73251;SDS011;61473;50.834;4.552;2022-07-22T11:49:05;5.53;;;2.63;;
73251;SDS011;61473;50.834;4.552;2022-07-22T11:51:32;4.40;;;2.78;;
73251;SDS011;61473;50.834;4.552;2022-07-22T11:54:00;5.13;;;3.50;;
73251;SDS011;61473;50.834;4.552;2022-07-22T11:56:26;5.85;;;2.97;;
73251;SDS011;61473;50.834;4.552;2022-07-22T11:58:52;4.10;;;2.63;;
73251;SDS011;61473;50.834;4.552;2022-07-22T12:01:25;4.60;;;2.72;;
73251;SDS011;61473;50.834;4.552;2022-07-22T12:03:59;5.82;;;2.60;;
73251;SDS011;61473;50.834;4.552;2022-07-22T12:06:27;5.93;;;3.00;;
73251;SDS011;61473;50.834;4.552;2022-07-22T12:09:03;3.97;;;2.72;;
73251;SDS011;61473;50.834;4.552;2022-07-22T12:11:34;4.13;;;2.40;;
73251;SDS011;61473;50.834;4.552;2022-07-22T12:14:06;3.17;;;2.60;;
73251;SDS011;61473;50.834;4.552;2022-07-22T12:16:33;4.65;;;2.30;;
73251;SDS011;61473;50.834;4.552;2022-07-22T12:19:00;4.15;;;2.90;;
73251;SDS011;61473;50.834;4.552;2022-07-22T12:21:48;3.80;;;2.33;;
73251;SDS011;61473;50.834;4.552;2022-07-22T12:24:24;3.65;;;2.78;;
73251;SDS011;61473;50.834;4.552;2022-07-22T12:27:01;9.25;;;2.83;;
73251;SDS011;61473;50.834;4.552;2022-07-22T12:29:41;3.45;;;2.35;;
73251;SDS011;61473;50.834;4.552;2022-07-22T12:32:09;4.65;;;2.60;;
73251;SDS011;61473;50.834;4.552;2022-07-22T12:34:48;11.23;;;2.72;;
73251;SDS011;61473;50.834;4.552;2022-07-22T12:37:25;4.10;;;2.38;;
73251;SDS011;61473;50.834;4.552;2022-07-22T12:45:13;4.25;;;2.42;;
73251;SDS011;61473;50.834;4.552;2022-07-22T12:47:51;3.90;;;2.28;;
73251;SDS011;61473;50.834;4.552;2022-07-22T12:50:35;2.78;;;2.10;;
73251;SDS011;61473;50.834;4.552;2022-07-22T12:53:07;3.75;;;2.53;;
73251;SDS011;61473;50.834;4.552;2022-07-22T12:55:38;2.90;;;2.60;;
73251;SDS011;61473;50.834;4.552;2022-07-22T12:58:21;5.25;;;3.05;;
73251;SDS011;61473;50.834;4.552;2022-07-22T13:00:53;8.23;;;2.90;;
73251;SDS011;61473;50.834;4.552;2022-07-22T13:03:21;2.05;;;1.85;;
73251;SDS011;61473;50.834;4.552;2022-07-22T13:05:52;3.88;;;2.42;;
73251;SDS011;61473;50.834;4.552;2022-07-22T13:08:20;4.88;;;2.33;;
73251;SDS011;61473;50.834;4.552;2022-07-22T13:10:46;4.63;;;2.00;;
73251;SDS011;61473;50.834;4.552;2022-07-22T13:13:12;3.10;;;2.42;;
73251;SDS011;61473;50.834;4.552;2022-07-22T13:15:37;4.88;;;2.28;;
73251;SDS011;61473;50.834;4.552;2022-07-22T13:18:04;4.15;;;2.25;;
73251;SDS011;61473;50.834;4.552;2022-07-22T13:20:30;3.33;;;2.30;;
73251;SDS011;61473;50.834;4.552;2022-07-22T13:22:55;2.85;;;2.17;;
73251;SDS011;61473;50.834;4.552;2022-07-22T13:25:21;5.10;;;2.60;;
73251;SDS011;61473;50.834;4.552;2022-07-22T13:27:47;2.88;;;2.45;;
73251;SDS011;61473;50.834;4.552;2022-07-22T13:30:13;3.25;;;1.80;;
73251;SDS011;61473;50.834;4.552;2022-07-22T13:32:39;2.15;;;1.70;;
73251;SDS011;61473;50.834;4.552;2022-07-22T13:35:04;2.67;;;2.20;;
73251;SDS011;61473;50.834;4.552;2022-07-22T13:37:30;3.13;;;2.10;;
73251;SDS011;61473;50.834;4.552;2022-07-22T13:39:56;3.17;;;2.30;;
73251;SDS011;61473;50.834;4.552;2022-07-22T13:42:21;3.08;;;2.70;;
73251;SDS011;61473;50.834;4.552;2022-07-22T13:44:48;3.40;;;2.53;;
73251;SDS011;61473;50.834;4.552;2022-07-22T13:47:16;3.97;;;1.88;;
73251;SDS011;61473;50.834;4.552;2022-07-22T13:49:42;2.95;;;2.72;;
73251;SDS011;61473;50.834;4.552;2022-07-22T13:52:09;2.42;;;1.98;;
73251;SDS011;61473;50.834;4.552;2022-07-22T13:54:35;3.72;;;2.67;;
73251;SDS011;61473;50.834;4.552;2022-07-22T13:57:01;2.88;;;1.80;;
73251;SDS011;61473;50.834;4.552;2022-07-22T13:59:29;3.42;;;2.53;;
73251;SDS011;61473;50.834;4.552;2022-07-22T14:01:55;4.82;;;2.28;;
73251;SDS011;61473;50.834;4.552;2022-07-22T14:04:22;2.50;;;1.92;;
73251;SDS011;61473;50.834;4.552;2022-07-22T14:06:49;3.17;;;2.38;;
73251;SDS011;61473;50.834;4.552;2022-07-22T14:09:15;3.67;;;2.13;;
73251;SDS011;61473;50.834;4.552;2022-07-22T14:11:40;3.38;;;2.38;;
73251;SDS011;61473;50.834;4.552;2022-07-22T14:14:06;3.53;;;2.03;;
73251;SDS011;61473;50.834;4.552;2022-07-22T14:16:32;2.85;;;2.15;;
73251;SDS011;61473;50.834;4.552;2022-07-22T14:18:58;2.50;;;2.03;;
73251;SDS011;61473;50.834;4.552;2022-07-22T14:21:25;2.88;;;2.08;;
73251;SDS011;61473;50.834;4.552;2022-07-22T14:23:50;4.57;;;2.10;;
73251;SDS011;61473;50.834;4.552;2022-07-22T14:26:16;3.75;;;2.25;;
73251;SDS011;61473;50.834;4.552;2022-07-22T14:28:41;3.10;;;2.00;;
73251;SDS011;61473;50.834;4.552;2022-07-22T14:31:07;3.45;;;2.22;;
73251;SDS011;61473;50.834;4.552;2022-07-22T14:33:33;4.15;;;2.60;;
73251;SDS011;61473;50.834;4.552;2022-07-22T14:35:58;1.95;;;1.85;;
73251;SDS011;61473;50.834;4.552;2022-07-22T14:38:24;18.90;;;3.45;;
73251;SDS011;61473;50.834;4.552;2022-07-22T14:40:50;10.88;;;3.25;;
73251;SDS011;61473;50.834;4.552;2022-07-22T14:43:15;6.65;;;2.45;;
73251;SDS011;61473;50.834;4.552;2022-07-22T14:45:41;4.85;;;2.78;;
73251;SDS011;61473;50.834;4.552;2022-07-22T14:48:07;3.42;;;2.90;;
73251;SDS011;61473;50.834;4.552;2022-07-22T14:50:32;4.80;;;2.92;;
73251;SDS011;61473;50.834;4.552;2022-07-22T14:52:58;5.50;;;2.30;;
73251;SDS011;61473;50.834;4.552;2022-07-22T14:55:23;7.28;;;2.92;;
73251;SDS011;61473;50.834;4.552;2022-07-22T14:57:49;4.25;;;3.00;;
73251;SDS011;61473;50.834;4.552;2022-07-22T15:00:15;3.53;;;2.67;;
73251;SDS011;61473;50.834;4.552;2022-07-22T15:02:41;5.28;;;3.42;;